sensor_id;sensor_type;location;lat;lon;timestamp;P1;durP1;ratioP1;P2;durP2;ratioP2
41946;SDS011;27638;42.184;24.848;2023-12-28T00:01:46;18.58;;;9.85;;
41946;SDS011;27638;42.184;24.848;2023-12-28T00:04:12;13.63;;;8.88;;
41946;SDS011;27638;42.184;24.848;2023-12-28T00:06:38;19.23;;;10.32;;
41946;SDS011;27638;42.184;24.848;2023-12-28T00:09:03;16.63;;;9.35;;
41946;SDS011;27638;42.184;24.848;2023-12-28T00:11:29;18.73;;;10.82;;
41946;SDS011;27638;42.184;24.848;2023-12-28T00:13:54;22.00;;;11.30;;
41946;SDS011;27638;42.184;24.848;2023-12-28T00:16:20;31.80;;;16.27;;
41946;SDS011;27638;42.184;24.848;2023-12-28T00:18:45;20.13;;;12.43;;
41946;SDS011;27638;42.184;24.848;2023-12-28T00:21:11;26.77;;;16.77;;
41946;SDS011;27638;42.184;24.848;2023-12-28T00:23:36;31.67;;;19.48;;
41946;SDS011;27638;42.184;24.848;2023-12-28T00:26:01;28.52;;;16.73;;
41946;SDS011;27638;42.184;24.848;2023-12-28T00:28:27;24.55;;;18.48;;
41946;SDS011;27638;42.184;24.848;2023-12-28T00:30:53;31.08;;;23.30;;
41946;SDS011;27638;42.184;24.848;2023-12-28T00:33:18;24.48;;;18.13;;
41946;SDS011;27638;42.184;24.848;2023-12-28T00:35:44;25.90;;;17.25;;
41946;SDS011;27638;42.184;24.848;2023-12-28T00:38:09;20.85;;;15.68;;
41946;SDS011;27638;42.184;24.848;2023-12-28T00:40:34;21.02;;;14.05;;
41946;SDS011;27638;42.184;24.848;2023-12-28T00:43:00;16.77;;;12.82;;
41946;SDS011;27638;42.184;24.848;2023-12-28T00:45:25;22.08;;;14.15;;
41946;SDS011;27638;42.184;24.848;2023-12-28T00:47:51;21.50;;;13.68;;
41946;SDS011;27638;42.184;24.848;2023-12-28T00:50:17;17.75;;;11.68;;
41946;SDS011;27638;42.184;24.848;2023-12-28T00:52:42;16.50;;;10.68;;
41946;SDS011;27638;42.184;24.848;2023-12-28T00:55:08;16.90;;;9.63;;
41946;SDS011;27638;42.184;24.848;2023-12-28T00:57:35;12.43;;;9.15;;
41946;SDS011;27638;42.184;24.848;2023-12-28T01:00:00;16.67;;;10.07;;
41946;SDS011;27638;42.184;24.848;2023-12-28T01:02:26;15.63;;;9.55;;
41946;SDS011;27638;42.184;24.848;2023-12-28T01:04:52;16.15;;;8.93;;
41946;SDS011;27638;42.184;24.848;2023-12-28T01:07:17;15.00;;;9.48;;
41946;SDS011;27638;42.184;24.848;2023-12-28T01:09:43;17.05;;;10.25;;
41946;SDS011;27638;42.184;24.848;2023-12-28T01:12:08;18.80;;;11.95;;
41946;SDS011;27638;42.184;24.848;2023-12-28T01:14:34;14.48;;;8.82;;
41946;SDS011;27638;42.184;24.848;2023-12-28T01:16:59;14.60;;;8.82;;
41946;SDS011;27638;42.184;24.848;2023-12-28T01:19:25;13.20;;;8.45;;
41946;SDS011;27638;42.184;24.848;2023-12-28T01:21:50;13.00;;;7.75;;
41946;SDS011;27638;42.184;24.848;2023-12-28T01:24:16;15.63;;;8.95;;
41946;SDS011;27638;42.184;24.848;2023-12-28T01:26:41;16.17;;;8.23;;
41946;SDS011;27638;42.184;24.848;2023-12-28T01:29:07;11.90;;;8.60;;
41946;SDS011;27638;42.184;24.848;2023-12-28T01:31:32;47.70;;;21.67;;
41946;SDS011;27638;42.184;24.848;2023-12-28T01:33:58;23.20;;;9.63;;
41946;SDS011;27638;42.184;24.848;2023-12-28T01:36:23;13.20;;;7.60;;
41946;SDS011;27638;42.184;24.848;2023-12-28T01:38:49;13.40;;;8.10;;
41946;SDS011;27638;42.184;24.848;2023-12-28T01:41:14;11.18;;;7.00;;
41946;SDS011;27638;42.184;24.848;2023-12-28T01:43:43;12.13;;;7.72;;
41946;SDS011;27638;42.184;24.848;2023-12-28T01:46:10;11.90;;;7.70;;
41946;SDS011;27638;42.184;24.848;2023-12-28T01:48:41;11.38;;;6.82;;
41946;SDS011;27638;42.184;24.848;2023-12-28T01:51:07;13.02;;;7.10;;
41946;SDS011;27638;42.184;24.848;2023-12-28T01:53:33;9.75;;;6.70;;
41946;SDS011;27638;42.184;24.848;2023-12-28T01:55:58;17.70;;;10.18;;
41946;SDS011;27638;42.184;24.848;2023-12-28T01:58:24;16.25;;;8.63;;
41946;SDS011;27638;42.184;24.848;2023-12-28T02:00:55;11.20;;;7.60;;
41946;SDS011;27638;42.184;24.848;2023-12-28T02:03:21;13.00;;;7.35;;
41946;SDS011;27638;42.184;24.848;2023-12-28T02:05:47;13.43;;;7.05;;
41946;SDS011;27638;42.184;24.848;2023-12-28T02:08:13;12.93;;;6.80;;
41946;SDS011;27638;42.184;24.848;2023-12-28T02:10:38;11.70;;;7.03;;
41946;SDS011;27638;42.184;24.848;2023-12-28T02:13:04;9.55;;;6.25;;
41946;SDS011;27638;42.184;24.848;2023-12-28T02:15:30;10.85;;;6.95;;
41946;SDS011;27638;42.184;24.848;2023-12-28T02:18:00;10.50;;;6.30;;
41946;SDS011;27638;42.184;24.848;2023-12-28T02:20:30;14.02;;;7.13;;
41946;SDS011;27638;42.184;24.848;2023-12-28T02:22:56;9.77;;;6.75;;
41946;SDS011;27638;42.184;24.848;2023-12-28T02:25:23;10.73;;;6.22;;
41946;SDS011;27638;42.184;24.848;2023-12-28T02:27:48;9.30;;;6.72;;
41946;SDS011;27638;42.184;24.848;2023-12-28T02:30:18;14.32;;;8.18;;
41946;SDS011;27638;42.184;24.848;2023-12-28T02:33:02;14.18;;;6.88;;
41946;SDS011;27638;42.184;24.848;2023-12-28T02:35:48;11.95;;;7.38;;
41946;SDS011;27638;42.184;24.848;2023-12-28T02:38:20;13.13;;;7.55;;
41946;SDS011;27638;42.184;24.848;2023-12-28T02:40:48;13.82;;;8.05;;
41946;SDS011;27638;42.184;24.848;2023-12-28T02:43:14;13.13;;;8.73;;
41946;SDS011;27638;42.184;24.848;2023-12-28T02:45:40;14.50;;;7.57;;
41946;SDS011;27638;42.184;24.848;2023-12-28T02:48:06;11.95;;;8.27;;
41946;SDS011;27638;42.184;24.848;2023-12-28T02:50:32;14.98;;;8.13;;
41946;SDS011;27638;42.184;24.848;2023-12-28T02:52:58;17.25;;;8.88;;
41946;SDS011;27638;42.184;24.848;2023-12-28T02:55:25;14.95;;;8.40;;
41946;SDS011;27638;42.184;24.848;2023-12-28T02:57:51;13.25;;;8.43;;
41946;SDS011;27638;42.184;24.848;2023-12-28T03:00:20;12.55;;;7.47;;
41946;SDS011;27638;42.184;24.848;2023-12-28T03:02:46;16.95;;;10.20;;
41946;SDS011;27638;42.184;24.848;2023-12-28T03:05:11;12.93;;;8.85;;
41946;SDS011;27638;42.184;24.848;2023-12-28T03:07:37;16.27;;;9.15;;
41946;SDS011;27638;42.184;24.848;2023-12-28T03:10:02;16.48;;;9.88;;
41946;SDS011;27638;42.184;24.848;2023-12-28T03:12:29;15.68;;;9.80;;
41946;SDS011;27638;42.184;24.848;2023-12-28T03:14:55;14.40;;;9.50;;
41946;SDS011;27638;42.184;24.848;2023-12-28T03:17:21;17.88;;;9.55;;
41946;SDS011;27638;42.184;24.848;2023-12-28T03:19:46;17.05;;;10.55;;
41946;SDS011;27638;42.184;24.848;2023-12-28T03:22:12;17.95;;;9.70;;
41946;SDS011;27638;42.184;24.848;2023-12-28T03:24:38;17.02;;;9.88;;
41946;SDS011;27638;42.184;24.848;2023-12-28T03:27:06;15.10;;;9.43;;
41946;SDS011;27638;42.184;24.848;2023-12-28T03:29:32;17.35;;;10.57;;
41946;SDS011;27638;42.184;24.848;2023-12-28T03:31:58;16.35;;;10.15;;
41946;SDS011;27638;42.184;24.848;2023-12-28T03:34:24;16.15;;;10.50;;
41946;SDS011;27638;42.184;24.848;2023-12-28T03:36:51;17.38;;;9.32;;
41946;SDS011;27638;42.184;24.848;2023-12-28T03:39:17;15.90;;;9.30;;
41946;SDS011;27638;42.184;24.848;2023-12-28T03:41:42;17.20;;;9.15;;
41946;SDS011;27638;42.184;24.848;2023-12-28T03:44:07;16.42;;;10.88;;
41946;SDS011;27638;42.184;24.848;2023-12-28T03:46:33;16.35;;;10.57;;
41946;SDS011;27638;42.184;24.848;2023-12-28T03:48:58;21.23;;;12.52;;
41946;SDS011;27638;42.184;24.848;2023-12-28T03:51:24;26.42;;;18.05;;
41946;SDS011;27638;42.184;24.848;2023-12-28T03:53:49;17.42;;;10.32;;
41946;SDS011;27638;42.184;24.848;2023-12-28T03:56:19;17.63;;;10.38;;
41946;SDS011;27638;42.184;24.848;2023-12-28T03:58:48;18.05;;;10.88;;
41946;SDS011;27638;42.184;24.848;2023-12-28T04:01:14;15.20;;;10.05;;
41946;SDS011;27638;42.184;24.848;2023-12-28T04:03:40;20.45;;;11.63;;
41946;SDS011;27638;42.184;24.848;2023-12-28T04:06:06;15.32;;;11.45;;
41946;SDS011;27638;42.184;24.848;2023-12-28T04:08:32;13.77;;;10.65;;
41946;SDS011;27638;42.184;24.848;2023-12-28T04:10:57;27.35;;;19.70;;
41946;SDS011;27638;42.184;24.848;2023-12-28T04:13:22;26.15;;;18.42;;
41946;SDS011;27638;42.184;24.848;2023-12-28T04:15:48;33.00;;;23.20;;
41946;SDS011;27638;42.184;24.848;2023-12-28T04:18:13;20.98;;;12.95;;
41946;SDS011;27638;42.184;24.848;2023-12-28T04:20:39;18.55;;;12.73;;
41946;SDS011;27638;42.184;24.848;2023-12-28T04:23:07;18.80;;;12.82;;
41946;SDS011;27638;42.184;24.848;2023-12-28T04:25:33;23.55;;;12.80;;
41946;SDS011;27638;42.184;24.848;2023-12-28T04:27:58;25.95;;;12.75;;
41946;SDS011;27638;42.184;24.848;2023-12-28T04:30:23;17.58;;;9.20;;
41946;SDS011;27638;42.184;24.848;2023-12-28T04:32:49;9.98;;;6.65;;
41946;SDS011;27638;42.184;24.848;2023-12-28T04:35:14;11.68;;;6.47;;
41946;SDS011;27638;42.184;24.848;2023-12-28T04:37:40;14.23;;;7.00;;
41946;SDS011;27638;42.184;24.848;2023-12-28T04:40:05;29.27;;;20.63;;
41946;SDS011;27638;42.184;24.848;2023-12-28T04:42:31;23.05;;;17.80;;
41946;SDS011;27638;42.184;24.848;2023-12-28T04:44:57;14.80;;;9.45;;
41946;SDS011;27638;42.184;24.848;2023-12-28T04:47:22;9.00;;;5.13;;
41946;SDS011;27638;42.184;24.848;2023-12-28T04:49:47;9.15;;;4.88;;
41946;SDS011;27638;42.184;24.848;2023-12-28T04:52:13;9.20;;;4.97;;
41946;SDS011;27638;42.184;24.848;2023-12-28T04:54:41;8.23;;;4.72;;
41946;SDS011;27638;42.184;24.848;2023-12-28T04:57:07;10.40;;;4.82;;
41946;SDS011;27638;42.184;24.848;2023-12-28T04:59:38;8.85;;;6.13;;
41946;SDS011;27638;42.184;24.848;2023-12-28T05:02:04;13.85;;;7.32;;
41946;SDS011;27638;42.184;24.848;2023-12-28T05:04:30;15.13;;;9.70;;
41946;SDS011;27638;42.184;24.848;2023-12-28T05:06:56;15.52;;;9.05;;
41946;SDS011;27638;42.184;24.848;2023-12-28T05:09:22;21.30;;;11.10;;
41946;SDS011;27638;42.184;24.848;2023-12-28T05:11:47;13.00;;;8.73;;
41946;SDS011;27638;42.184;24.848;2023-12-28T05:14:13;15.75;;;9.85;;
41946;SDS011;27638;42.184;24.848;2023-12-28T05:16:38;12.27;;;9.43;;
41946;SDS011;27638;42.184;24.848;2023-12-28T05:19:03;14.73;;;8.52;;
41946;SDS011;27638;42.184;24.848;2023-12-28T05:21:29;20.58;;;10.02;;
41946;SDS011;27638;42.184;24.848;2023-12-28T05:23:54;16.30;;;10.20;;
41946;SDS011;27638;42.184;24.848;2023-12-28T05:26:20;16.77;;;9.48;;
41946;SDS011;27638;42.184;24.848;2023-12-28T05:28:45;16.35;;;10.25;;
41946;SDS011;27638;42.184;24.848;2023-12-28T05:31:11;18.63;;;10.13;;
41946;SDS011;27638;42.184;24.848;2023-12-28T05:33:38;15.73;;;9.93;;
41946;SDS011;27638;42.184;24.848;2023-12-28T05:36:03;15.02;;;9.30;;
41946;SDS011;27638;42.184;24.848;2023-12-28T05:38:30;15.88;;;9.95;;
41946;SDS011;27638;42.184;24.848;2023-12-28T05:40:55;18.15;;;12.05;;
41946;SDS011;27638;42.184;24.848;2023-12-28T05:43:20;20.73;;;12.15;;
41946;SDS011;27638;42.184;24.848;2023-12-28T05:45:46;20.98;;;13.70;;
41946;SDS011;27638;42.184;24.848;2023-12-28T05:48:11;22.95;;;14.68;;
41946;SDS011;27638;42.184;24.848;2023-12-28T05:50:37;19.02;;;14.02;;
41946;SDS011;27638;42.184;24.848;2023-12-28T05:53:02;14.93;;;10.15;;
41946;SDS011;27638;42.184;24.848;2023-12-28T05:55:28;14.15;;;7.65;;
41946;SDS011;27638;42.184;24.848;2023-12-28T05:57:53;14.48;;;7.47;;
41946;SDS011;27638;42.184;24.848;2023-12-28T06:00:19;12.43;;;6.32;;
41946;SDS011;27638;42.184;24.848;2023-12-28T06:02:44;14.32;;;6.68;;
41946;SDS011;27638;42.184;24.848;2023-12-28T06:05:11;25.13;;;17.48;;
41946;SDS011;27638;42.184;24.848;2023-12-28T06:07:37;20.75;;;10.35;;
41946;SDS011;27638;42.184;24.848;2023-12-28T06:10:03;20.00;;;8.35;;
41946;SDS011;27638;42.184;24.848;2023-12-28T06:12:29;12.40;;;9.70;;
41946;SDS011;27638;42.184;24.848;2023-12-28T06:14:54;16.35;;;10.82;;
41946;SDS011;27638;42.184;24.848;2023-12-28T06:17:20;22.35;;;9.25;;
41946;SDS011;27638;42.184;24.848;2023-12-28T06:19:45;10.18;;;5.57;;
41946;SDS011;27638;42.184;24.848;2023-12-28T06:22:11;11.45;;;8.75;;
41946;SDS011;27638;42.184;24.848;2023-12-28T06:24:39;12.32;;;5.72;;
41946;SDS011;27638;42.184;24.848;2023-12-28T06:27:05;9.40;;;5.70;;
41946;SDS011;27638;42.184;24.848;2023-12-28T06:29:31;10.80;;;7.63;;
41946;SDS011;27638;42.184;24.848;2023-12-28T06:31:56;10.70;;;6.10;;
41946;SDS011;27638;42.184;24.848;2023-12-28T06:34:21;14.57;;;5.70;;
41946;SDS011;27638;42.184;24.848;2023-12-28T06:36:47;11.63;;;5.93;;
41946;SDS011;27638;42.184;24.848;2023-12-28T06:39:12;14.05;;;8.50;;
41946;SDS011;27638;42.184;24.848;2023-12-28T06:41:38;27.13;;;14.60;;
41946;SDS011;27638;42.184;24.848;2023-12-28T06:44:04;27.20;;;15.48;;
41946;SDS011;27638;42.184;24.848;2023-12-28T06:46:29;20.33;;;11.75;;
41946;SDS011;27638;42.184;24.848;2023-12-28T06:48:55;18.67;;;11.98;;
41946;SDS011;27638;42.184;24.848;2023-12-28T06:51:20;11.80;;;8.48;;
41946;SDS011;27638;42.184;24.848;2023-12-28T06:53:47;14.50;;;10.73;;
41946;SDS011;27638;42.184;24.848;2023-12-28T06:56:13;20.75;;;12.85;;
41946;SDS011;27638;42.184;24.848;2023-12-28T06:58:39;22.25;;;13.38;;
41946;SDS011;27638;42.184;24.848;2023-12-28T07:01:05;25.95;;;14.98;;
41946;SDS011;27638;42.184;24.848;2023-12-28T07:03:31;25.67;;;15.00;;
41946;SDS011;27638;42.184;24.848;2023-12-28T07:06:01;24.55;;;15.38;;
41946;SDS011;27638;42.184;24.848;2023-12-28T07:08:28;29.10;;;17.38;;
41946;SDS011;27638;42.184;24.848;2023-12-28T07:10:53;36.75;;;19.52;;
41946;SDS011;27638;42.184;24.848;2023-12-28T07:13:19;34.33;;;20.63;;
41946;SDS011;27638;42.184;24.848;2023-12-28T07:15:44;31.33;;;19.05;;
41946;SDS011;27638;42.184;24.848;2023-12-28T07:18:10;28.67;;;17.95;;
41946;SDS011;27638;42.184;24.848;2023-12-28T07:20:36;22.52;;;16.33;;
41946;SDS011;27638;42.184;24.848;2023-12-28T07:23:01;23.50;;;16.48;;
41946;SDS011;27638;42.184;24.848;2023-12-28T07:25:28;22.95;;;14.95;;
41946;SDS011;27638;42.184;24.848;2023-12-28T07:27:53;16.80;;;10.40;;
41946;SDS011;27638;42.184;24.848;2023-12-28T07:30:18;12.75;;;7.72;;
41946;SDS011;27638;42.184;24.848;2023-12-28T07:32:44;13.23;;;7.50;;
41946;SDS011;27638;42.184;24.848;2023-12-28T07:35:12;10.00;;;7.25;;
41946;SDS011;27638;42.184;24.848;2023-12-28T07:37:38;9.30;;;6.82;;
41946;SDS011;27638;42.184;24.848;2023-12-28T07:40:03;13.70;;;8.35;;
41946;SDS011;27638;42.184;24.848;2023-12-28T07:42:29;8.98;;;6.45;;
41946;SDS011;27638;42.184;24.848;2023-12-28T07:44:55;7.70;;;6.47;;
41946;SDS011;27638;42.184;24.848;2023-12-28T07:47:20;15.90;;;8.63;;
41946;SDS011;27638;42.184;24.848;2023-12-28T07:49:46;19.05;;;11.38;;
41946;SDS011;27638;42.184;24.848;2023-12-28T07:52:11;18.88;;;11.77;;
41946;SDS011;27638;42.184;24.848;2023-12-28T07:54:37;49.33;;;21.13;;
41946;SDS011;27638;42.184;24.848;2023-12-28T07:57:02;14.35;;;8.77;;
41946;SDS011;27638;42.184;24.848;2023-12-28T07:59:28;12.05;;;7.22;;
41946;SDS011;27638;42.184;24.848;2023-12-28T08:01:53;11.93;;;7.32;;
41946;SDS011;27638;42.184;24.848;2023-12-28T08:04:19;14.52;;;7.18;;
41946;SDS011;27638;42.184;24.848;2023-12-28T08:06:44;10.68;;;7.45;;
41946;SDS011;27638;42.184;24.848;2023-12-28T08:09:09;16.95;;;9.60;;
41946;SDS011;27638;42.184;24.848;2023-12-28T08:11:35;13.25;;;8.15;;
41946;SDS011;27638;42.184;24.848;2023-12-28T08:14:00;16.27;;;8.40;;
41946;SDS011;27638;42.184;24.848;2023-12-28T08:16:26;12.27;;;7.95;;
41946;SDS011;27638;42.184;24.848;2023-12-28T08:18:52;22.40;;;9.35;;
41946;SDS011;27638;42.184;24.848;2023-12-28T08:21:17;15.63;;;7.35;;
41946;SDS011;27638;42.184;24.848;2023-12-28T08:23:43;13.75;;;8.15;;
41946;SDS011;27638;42.184;24.848;2023-12-28T08:26:09;12.73;;;8.88;;
41946;SDS011;27638;42.184;24.848;2023-12-28T08:28:35;13.73;;;8.20;;
41946;SDS011;27638;42.184;24.848;2023-12-28T08:31:01;16.05;;;8.57;;
41946;SDS011;27638;42.184;24.848;2023-12-28T08:33:26;17.88;;;9.35;;
41946;SDS011;27638;42.184;24.848;2023-12-28T08:35:52;28.80;;;10.60;;
41946;SDS011;27638;42.184;24.848;2023-12-28T08:38:17;14.75;;;9.10;;
41946;SDS011;27638;42.184;24.848;2023-12-28T08:40:43;20.42;;;11.65;;
41946;SDS011;27638;42.184;24.848;2023-12-28T08:43:09;18.35;;;10.70;;
41946;SDS011;27638;42.184;24.848;2023-12-28T08:45:35;21.35;;;11.82;;
41946;SDS011;27638;42.184;24.848;2023-12-28T08:48:01;20.80;;;12.45;;
41946;SDS011;27638;42.184;24.848;2023-12-28T08:50:27;19.55;;;12.50;;
41946;SDS011;27638;42.184;24.848;2023-12-28T08:52:52;20.30;;;11.30;;
41946;SDS011;27638;42.184;24.848;2023-12-28T08:55:17;20.13;;;11.75;;
41946;SDS011;27638;42.184;24.848;2023-12-28T08:57:43;18.58;;;10.63;;
41946;SDS011;27638;42.184;24.848;2023-12-28T09:00:09;15.65;;;9.73;;
41946;SDS011;27638;42.184;24.848;2023-12-28T09:02:35;13.30;;;9.65;;
41946;SDS011;27638;42.184;24.848;2023-12-28T09:05:00;14.18;;;9.18;;
41946;SDS011;27638;42.184;24.848;2023-12-28T09:07:26;16.92;;;9.48;;
41946;SDS011;27638;42.184;24.848;2023-12-28T09:09:51;13.15;;;8.15;;
41946;SDS011;27638;42.184;24.848;2023-12-28T09:12:17;11.27;;;6.63;;
41946;SDS011;27638;42.184;24.848;2023-12-28T09:14:43;10.82;;;7.05;;
41946;SDS011;27638;42.184;24.848;2023-12-28T09:17:08;13.93;;;8.65;;
41946;SDS011;27638;42.184;24.848;2023-12-28T09:19:34;10.68;;;7.93;;
41946;SDS011;27638;42.184;24.848;2023-12-28T09:21:59;14.02;;;7.57;;
41946;SDS011;27638;42.184;24.848;2023-12-28T09:24:25;10.02;;;6.97;;
41946;SDS011;27638;42.184;24.848;2023-12-28T09:26:50;12.60;;;7.72;;
41946;SDS011;27638;42.184;24.848;2023-12-28T09:29:16;9.55;;;6.60;;
41946;SDS011;27638;42.184;24.848;2023-12-28T09:31:41;10.50;;;6.35;;
41946;SDS011;27638;42.184;24.848;2023-12-28T09:34:07;11.50;;;6.45;;
41946;SDS011;27638;42.184;24.848;2023-12-28T09:36:32;10.93;;;7.32;;
41946;SDS011;27638;42.184;24.848;2023-12-28T09:38:58;11.02;;;5.65;;
41946;SDS011;27638;42.184;24.848;2023-12-28T09:41:25;8.32;;;5.78;;
41946;SDS011;27638;42.184;24.848;2023-12-28T09:43:58;13.43;;;6.55;;
41946;SDS011;27638;42.184;24.848;2023-12-28T09:46:32;10.15;;;5.50;;
41946;SDS011;27638;42.184;24.848;2023-12-28T09:48:58;16.30;;;8.55;;
41946;SDS011;27638;42.184;24.848;2023-12-28T09:51:24;12.10;;;7.50;;
41946;SDS011;27638;42.184;24.848;2023-12-28T09:53:50;9.80;;;5.90;;
41946;SDS011;27638;42.184;24.848;2023-12-28T09:56:16;8.35;;;6.47;;
41946;SDS011;27638;42.184;24.848;2023-12-28T09:58:42;16.65;;;7.63;;
41946;SDS011;27638;42.184;24.848;2023-12-28T10:01:09;16.30;;;7.85;;
41946;SDS011;27638;42.184;24.848;2023-12-28T10:03:35;15.35;;;7.30;;
41946;SDS011;27638;42.184;24.848;2023-12-28T10:06:01;14.55;;;5.85;;
41946;SDS011;27638;42.184;24.848;2023-12-28T10:08:27;9.10;;;6.60;;
41946;SDS011;27638;42.184;24.848;2023-12-28T10:10:52;8.77;;;5.45;;
41946;SDS011;27638;42.184;24.848;2023-12-28T10:13:19;9.40;;;5.55;;
41946;SDS011;27638;42.184;24.848;2023-12-28T10:15:48;13.23;;;6.32;;
41946;SDS011;27638;42.184;24.848;2023-12-28T10:18:16;11.68;;;6.50;;
41946;SDS011;27638;42.184;24.848;2023-12-28T10:20:47;11.55;;;5.95;;
41946;SDS011;27638;42.184;24.848;2023-12-28T10:23:20;11.43;;;5.55;;
41946;SDS011;27638;42.184;24.848;2023-12-28T10:25:49;12.35;;;5.80;;
41946;SDS011;27638;42.184;24.848;2023-12-28T10:28:18;10.63;;;5.97;;
41946;SDS011;27638;42.184;24.848;2023-12-28T10:30:45;8.18;;;5.20;;
41946;SDS011;27638;42.184;24.848;2023-12-28T10:33:10;9.68;;;5.15;;
41946;SDS011;27638;42.184;24.848;2023-12-28T10:35:36;8.52;;;5.20;;
41946;SDS011;27638;42.184;24.848;2023-12-28T10:38:01;8.55;;;4.97;;
41946;SDS011;27638;42.184;24.848;2023-12-28T10:40:29;7.85;;;5.43;;
41946;SDS011;27638;42.184;24.848;2023-12-28T10:42:57;9.68;;;5.95;;
41946;SDS011;27638;42.184;24.848;2023-12-28T10:45:26;9.45;;;4.90;;
41946;SDS011;27638;42.184;24.848;2023-12-28T10:50:26;8.50;;;5.05;;
41946;SDS011;27638;42.184;24.848;2023-12-28T10:52:56;10.68;;;5.07;;
41946;SDS011;27638;42.184;24.848;2023-12-28T10:55:33;9.77;;;5.43;;
41946;SDS011;27638;42.184;24.848;2023-12-28T10:58:14;7.43;;;5.18;;
41946;SDS011;27638;42.184;24.848;2023-12-28T11:00:56;9.23;;;5.53;;
41946;SDS011;27638;42.184;24.848;2023-12-28T11:03:27;12.52;;;6.63;;
41946;SDS011;27638;42.184;24.848;2023-12-28T11:05:56;10.98;;;5.15;;
41946;SDS011;27638;42.184;24.848;2023-12-28T11:08:22;8.05;;;5.15;;
41946;SDS011;27638;42.184;24.848;2023-12-28T11:10:50;8.65;;;5.97;;
41946;SDS011;27638;42.184;24.848;2023-12-28T11:13:17;8.18;;;5.03;;
41946;SDS011;27638;42.184;24.848;2023-12-28T11:15:46;9.88;;;5.50;;
41946;SDS011;27638;42.184;24.848;2023-12-28T11:18:13;9.30;;;6.15;;
41946;SDS011;27638;42.184;24.848;2023-12-28T11:20:41;9.32;;;6.30;;
41946;SDS011;27638;42.184;24.848;2023-12-28T11:23:08;10.00;;;5.43;;
41946;SDS011;27638;42.184;24.848;2023-12-28T11:25:35;8.25;;;5.03;;
41946;SDS011;27638;42.184;24.848;2023-12-28T11:28:08;9.02;;;6.03;;
41946;SDS011;27638;42.184;24.848;2023-12-28T11:30:34;9.45;;;5.32;;
41946;SDS011;27638;42.184;24.848;2023-12-28T11:33:01;9.02;;;6.30;;
41946;SDS011;27638;42.184;24.848;2023-12-28T11:35:38;9.65;;;5.47;;
41946;SDS011;27638;42.184;24.848;2023-12-28T11:40:39;9.20;;;5.32;;
41946;SDS011;27638;42.184;24.848;2023-12-28T11:43:05;12.07;;;7.10;;
41946;SDS011;27638;42.184;24.848;2023-12-28T11:45:50;10.77;;;6.40;;
41946;SDS011;27638;42.184;24.848;2023-12-28T11:48:23;9.68;;;6.10;;
41946;SDS011;27638;42.184;24.848;2023-12-28T11:50:54;8.45;;;4.80;;
41946;SDS011;27638;42.184;24.848;2023-12-28T11:53:21;8.77;;;5.30;;
41946;SDS011;27638;42.184;24.848;2023-12-28T11:55:47;9.43;;;5.18;;
41946;SDS011;27638;42.184;24.848;2023-12-28T11:58:12;8.45;;;5.45;;
41946;SDS011;27638;42.184;24.848;2023-12-28T12:00:39;10.40;;;5.07;;
41946;SDS011;27638;42.184;24.848;2023-12-28T12:03:05;8.30;;;5.53;;
41946;SDS011;27638;42.184;24.848;2023-12-28T12:05:31;13.15;;;6.28;;
41946;SDS011;27638;42.184;24.848;2023-12-28T12:07:57;12.20;;;6.60;;
41946;SDS011;27638;42.184;24.848;2023-12-28T12:10:22;17.85;;;7.28;;
41946;SDS011;27638;42.184;24.848;2023-12-28T12:12:48;12.52;;;6.75;;
41946;SDS011;27638;42.184;24.848;2023-12-28T12:15:17;9.73;;;5.68;;
41946;SDS011;27638;42.184;24.848;2023-12-28T12:17:43;8.55;;;4.65;;
41946;SDS011;27638;42.184;24.848;2023-12-28T12:20:09;7.97;;;5.05;;
41946;SDS011;27638;42.184;24.848;2023-12-28T12:22:35;7.68;;;4.55;;
41946;SDS011;27638;42.184;24.848;2023-12-28T12:25:02;8.85;;;5.10;;
41946;SDS011;27638;42.184;24.848;2023-12-28T12:27:30;11.13;;;5.30;;
41946;SDS011;27638;42.184;24.848;2023-12-28T12:29:56;14.77;;;5.53;;
41946;SDS011;27638;42.184;24.848;2023-12-28T12:32:22;10.75;;;5.20;;
41946;SDS011;27638;42.184;24.848;2023-12-28T12:34:47;8.80;;;4.85;;
41946;SDS011;27638;42.184;24.848;2023-12-28T12:37:14;6.07;;;4.43;;
41946;SDS011;27638;42.184;24.848;2023-12-28T12:39:40;6.20;;;4.32;;
41946;SDS011;27638;42.184;24.848;2023-12-28T12:42:05;7.95;;;4.78;;
41946;SDS011;27638;42.184;24.848;2023-12-28T12:44:31;8.10;;;3.65;;
41946;SDS011;27638;42.184;24.848;2023-12-28T12:46:58;6.40;;;4.60;;
41946;SDS011;27638;42.184;24.848;2023-12-28T12:49:24;7.22;;;4.10;;
41946;SDS011;27638;42.184;24.848;2023-12-28T12:51:51;11.90;;;4.60;;
41946;SDS011;27638;42.184;24.848;2023-12-28T12:54:17;6.45;;;4.25;;
41946;SDS011;27638;42.184;24.848;2023-12-28T12:56:45;7.57;;;3.60;;
41946;SDS011;27638;42.184;24.848;2023-12-28T12:59:12;6.18;;;4.25;;
41946;SDS011;27638;42.184;24.848;2023-12-28T13:01:43;7.75;;;4.15;;
41946;SDS011;27638;42.184;24.848;2023-12-28T13:04:10;6.53;;;4.05;;
41946;SDS011;27638;42.184;24.848;2023-12-28T13:06:36;6.45;;;4.00;;
41946;SDS011;27638;42.184;24.848;2023-12-28T13:09:01;5.70;;;4.22;;
41946;SDS011;27638;42.184;24.848;2023-12-28T13:11:28;6.90;;;3.72;;
41946;SDS011;27638;42.184;24.848;2023-12-28T13:13:53;8.40;;;4.88;;
41946;SDS011;27638;42.184;24.848;2023-12-28T13:16:19;5.88;;;4.20;;
41946;SDS011;27638;42.184;24.848;2023-12-28T13:18:44;4.93;;;3.60;;
41946;SDS011;27638;42.184;24.848;2023-12-28T13:21:10;6.03;;;3.85;;
41946;SDS011;27638;42.184;24.848;2023-12-28T13:23:35;6.68;;;4.07;;
41946;SDS011;27638;42.184;24.848;2023-12-28T13:26:01;6.32;;;3.80;;
41946;SDS011;27638;42.184;24.848;2023-12-28T13:28:27;19.85;;;5.90;;
41946;SDS011;27638;42.184;24.848;2023-12-28T13:30:52;6.82;;;4.50;;
41946;SDS011;27638;42.184;24.848;2023-12-28T13:33:20;8.45;;;4.03;;
41946;SDS011;27638;42.184;24.848;2023-12-28T13:35:47;6.68;;;4.32;;
41946;SDS011;27638;42.184;24.848;2023-12-28T13:38:12;11.15;;;5.75;;
41946;SDS011;27638;42.184;24.848;2023-12-28T13:40:38;7.35;;;4.90;;
41946;SDS011;27638;42.184;24.848;2023-12-28T13:43:03;4.43;;;3.60;;
41946;SDS011;27638;42.184;24.848;2023-12-28T13:45:29;7.10;;;3.65;;
41946;SDS011;27638;42.184;24.848;2023-12-28T13:47:54;5.28;;;4.13;;
41946;SDS011;27638;42.184;24.848;2023-12-28T13:50:20;7.85;;;4.35;;
41946;SDS011;27638;42.184;24.848;2023-12-28T13:52:45;7.15;;;4.30;;
41946;SDS011;27638;42.184;24.848;2023-12-28T13:55:11;7.78;;;4.15;;
41946;SDS011;27638;42.184;24.848;2023-12-28T13:57:37;6.95;;;3.88;;
41946;SDS011;27638;42.184;24.848;2023-12-28T14:00:03;8.57;;;4.38;;
41946;SDS011;27638;42.184;24.848;2023-12-28T14:02:30;6.43;;;4.15;;
41946;SDS011;27638;42.184;24.848;2023-12-28T14:04:56;5.93;;;3.90;;
41946;SDS011;27638;42.184;24.848;2023-12-28T14:07:22;7.47;;;3.90;;
41946;SDS011;27638;42.184;24.848;2023-12-28T14:09:48;8.07;;;3.63;;
41946;SDS011;27638;42.184;24.848;2023-12-28T14:12:14;7.28;;;3.85;;
41946;SDS011;27638;42.184;24.848;2023-12-28T14:14:39;6.75;;;3.92;;
41946;SDS011;27638;42.184;24.848;2023-12-28T14:17:05;12.98;;;4.07;;
41946;SDS011;27638;42.184;24.848;2023-12-28T14:19:31;7.25;;;4.10;;
41946;SDS011;27638;42.184;24.848;2023-12-28T14:21:57;8.82;;;4.20;;